sensor_id;sensor_type;location;lat;lon;timestamp;P1;durP1;ratioP1;P2;durP2;ratioP2
5491;SDS011;2768;53.540;10.224;2023-12-22T00:00:44;16.73;;;3.70;;
5491;SDS011;2768;53.540;10.224;2023-12-22T00:06:39;13.40;;;3.43;;
5491;SDS011;2768;53.540;10.224;2023-12-22T00:12:33;12.20;;;3.13;;
5491;SDS011;2768;53.540;10.224;2023-12-22T00:18:28;14.10;;;3.10;;
5491;SDS011;2768;53.540;10.224;2023-12-22T00:24:22;14.33;;;3.23;;
5491;SDS011;2768;53.540;10.224;2023-12-22T00:30:16;22.77;;;4.10;;
5491;SDS011;2768;53.540;10.224;2023-12-22T00:36:11;14.20;;;3.13;;
5491;SDS011;2768;53.540;10.224;2023-12-22T00:42:04;13.23;;;3.33;;
5491;SDS011;2768;53.540;10.224;2023-12-22T00:47:58;12.63;;;3.30;;
5491;SDS011;2768;53.540;10.224;2023-12-22T00:53:52;16.70;;;3.63;;
5491;SDS011;2768;53.540;10.224;2023-12-22T00:59:46;10.10;;;3.37;;
5491;SDS011;2768;53.540;10.224;2023-12-22T01:05:40;19.30;;;4.33;;
5491;SDS011;2768;53.540;10.224;2023-12-22T01:11:35;17.57;;;3.60;;
5491;SDS011;2768;53.540;10.224;2023-12-22T01:17:28;15.23;;;4.17;;
5491;SDS011;2768;53.540;10.224;2023-12-22T01:23:22;14.03;;;3.90;;
5491;SDS011;2768;53.540;10.224;2023-12-22T01:29:18;15.47;;;2.60;;
5491;SDS011;2768;53.540;10.224;2023-12-22T01:35:11;11.90;;;3.00;;
5491;SDS011;2768;53.540;10.224;2023-12-22T01:41:05;10.50;;;3.10;;
5491;SDS011;2768;53.540;10.224;2023-12-22T01:47:01;11.17;;;1.83;;
5491;SDS011;2768;53.540;10.224;2023-12-22T01:52:55;1.70;;;1.23;;
5491;SDS011;2768;53.540;10.224;2023-12-22T01:58:50;5.03;;;1.33;;
5491;SDS011;2768;53.540;10.224;2023-12-22T02:04:46;2.83;;;0.80;;
5491;SDS011;2768;53.540;10.224;2023-12-22T02:10:40;2.50;;;0.90;;
5491;SDS011;2768;53.540;10.224;2023-12-22T02:16:37;1.30;;;0.73;;
5491;SDS011;2768;53.540;10.224;2023-12-22T02:22:36;3.33;;;0.97;;
5491;SDS011;2768;53.540;10.224;2023-12-22T02:28:30;5.10;;;1.13;;
5491;SDS011;2768;53.540;10.224;2023-12-22T02:34:28;4.00;;;1.03;;
5491;SDS011;2768;53.540;10.224;2023-12-22T02:40:48;6.60;;;1.37;;
5491;SDS011;2768;53.540;10.224;2023-12-22T02:46:42;8.00;;;1.60;;
5491;SDS011;2768;53.540;10.224;2023-12-22T02:52:36;5.87;;;1.47;;
5491;SDS011;2768;53.540;10.224;2023-12-22T02:58:31;7.00;;;2.10;;
5491;SDS011;2768;53.540;10.224;2023-12-22T03:04:24;4.80;;;1.53;;
5491;SDS011;2768;53.540;10.224;2023-12-22T03:10:18;3.97;;;1.43;;
5491;SDS011;2768;53.540;10.224;2023-12-22T03:16:12;5.20;;;1.10;;
5491;SDS011;2768;53.540;10.224;2023-12-22T03:22:06;4.77;;;1.13;;
5491;SDS011;2768;53.540;10.224;2023-12-22T03:27:59;2.60;;;0.70;;
5491;SDS011;2768;53.540;10.224;2023-12-22T03:33:54;2.87;;;1.10;;
5491;SDS011;2768;53.540;10.224;2023-12-22T03:39:47;3.70;;;0.70;;
5491;SDS011;2768;53.540;10.224;2023-12-22T03:45:41;4.50;;;1.07;;
5491;SDS011;2768;53.540;10.224;2023-12-22T03:51:36;5.40;;;1.37;;
5491;SDS011;2768;53.540;10.224;2023-12-22T03:57:29;1.43;;;0.60;;
5491;SDS011;2768;53.540;10.224;2023-12-22T04:03:23;1.93;;;0.70;;
5491;SDS011;2768;53.540;10.224;2023-12-22T04:09:18;6.20;;;1.00;;
5491;SDS011;2768;53.540;10.224;2023-12-22T04:15:11;10.93;;;1.63;;
5491;SDS011;2768;53.540;10.224;2023-12-22T04:21:05;7.13;;;1.63;;
5491;SDS011;2768;53.540;10.224;2023-12-22T04:27:00;7.37;;;1.50;;
5491;SDS011;2768;53.540;10.224;2023-12-22T04:32:53;9.57;;;1.70;;
5491;SDS011;2768;53.540;10.224;2023-12-22T04:38:48;1.90;;;1.13;;
5491;SDS011;2768;53.540;10.224;2023-12-22T04:44:42;5.23;;;1.57;;
5491;SDS011;2768;53.540;10.224;2023-12-22T04:50:35;7.20;;;2.10;;
5491;SDS011;2768;53.540;10.224;2023-12-22T04:56:29;7.27;;;1.40;;
5491;SDS011;2768;53.540;10.224;2023-12-22T05:02:24;5.33;;;1.50;;
5491;SDS011;2768;53.540;10.224;2023-12-22T05:08:17;9.57;;;1.90;;
5491;SDS011;2768;53.540;10.224;2023-12-22T05:14:11;9.50;;;1.83;;
5491;SDS011;2768;53.540;10.224;2023-12-22T05:20:06;5.60;;;1.93;;
5491;SDS011;2768;53.540;10.224;2023-12-22T05:26:01;5.80;;;1.27;;
5491;SDS011;2768;53.540;10.224;2023-12-22T05:31:55;6.77;;;1.40;;
5491;SDS011;2768;53.540;10.224;2023-12-22T05:37:50;5.57;;;1.50;;
5491;SDS011;2768;53.540;10.224;2023-12-22T05:43:43;5.13;;;1.57;;
5491;SDS011;2768;53.540;10.224;2023-12-22T05:49:41;8.67;;;1.90;;
5491;SDS011;2768;53.540;10.224;2023-12-22T05:55:37;9.77;;;1.70;;
5491;SDS011;2768;53.540;10.224;2023-12-22T06:01:30;7.07;;;1.10;;
5491;SDS011;2768;53.540;10.224;2023-12-22T06:07:23;5.77;;;1.77;;
5491;SDS011;2768;53.540;10.224;2023-12-22T06:13:18;12.03;;;1.90;;
5491;SDS011;2768;53.540;10.224;2023-12-22T06:19:11;9.17;;;1.30;;
5491;SDS011;2768;53.540;10.224;2023-12-22T06:25:05;2.90;;;1.00;;
5491;SDS011;2768;53.540;10.224;2023-12-22T06:31:01;3.30;;;1.03;;
5491;SDS011;2768;53.540;10.224;2023-12-22T06:36:55;6.80;;;1.40;;
5491;SDS011;2768;53.540;10.224;2023-12-22T06:42:49;6.97;;;1.60;;
5491;SDS011;2768;53.540;10.224;2023-12-22T06:48:43;12.00;;;1.70;;
5491;SDS011;2768;53.540;10.224;2023-12-22T06:54:37;10.53;;;1.90;;
5491;SDS011;2768;53.540;10.224;2023-12-22T07:00:30;8.50;;;2.13;;
5491;SDS011;2768;53.540;10.224;2023-12-22T07:06:25;10.77;;;2.33;;
5491;SDS011;2768;53.540;10.224;2023-12-22T07:12:20;10.47;;;2.50;;
5491;SDS011;2768;53.540;10.224;2023-12-22T07:18:13;10.80;;;2.57;;
5491;SDS011;2768;53.540;10.224;2023-12-22T07:24:08;12.63;;;2.93;;
5491;SDS011;2768;53.540;10.224;2023-12-22T07:30:01;13.80;;;2.77;;
5491;SDS011;2768;53.540;10.224;2023-12-22T07:35:55;17.50;;;4.13;;
5491;SDS011;2768;53.540;10.224;2023-12-22T07:41:49;18.10;;;4.00;;
5491;SDS011;2768;53.540;10.224;2023-12-22T07:47:42;12.93;;;3.57;;
5491;SDS011;2768;53.540;10.224;2023-12-22T07:53:38;11.10;;;2.37;;
5491;SDS011;2768;53.540;10.224;2023-12-22T07:59:34;13.63;;;3.40;;
5491;SDS011;2768;53.540;10.224;2023-12-22T08:05:31;10.93;;;3.43;;
5491;SDS011;2768;53.540;10.224;2023-12-22T08:11:25;14.03;;;3.10;;
5491;SDS011;2768;53.540;10.224;2023-12-22T08:17:19;12.00;;;3.10;;
5491;SDS011;2768;53.540;10.224;2023-12-22T08:23:12;8.13;;;2.70;;
5491;SDS011;2768;53.540;10.224;2023-12-22T08:29:07;7.43;;;2.00;;
5491;SDS011;2768;53.540;10.224;2023-12-22T08:35:01;7.70;;;1.60;;
5491;SDS011;2768;53.540;10.224;2023-12-22T08:40:59;9.70;;;2.47;;
5491;SDS011;2768;53.540;10.224;2023-12-22T08:46:56;13.27;;;2.67;;
5491;SDS011;2768;53.540;10.224;2023-12-22T08:52:51;15.90;;;2.47;;
5491;SDS011;2768;53.540;10.224;2023-12-22T08:58:44;9.60;;;2.37;;
5491;SDS011;2768;53.540;10.224;2023-12-22T09:04:37;7.43;;;2.67;;
5491;SDS011;2768;53.540;10.224;2023-12-22T09:10:32;8.30;;;2.10;;
5491;SDS011;2768;53.540;10.224;2023-12-22T09:16:25;6.53;;;1.50;;
5491;SDS011;2768;53.540;10.224;2023-12-22T09:22:19;8.77;;;1.80;;
5491;SDS011;2768;53.540;10.224;2023-12-22T09:28:14;9.60;;;1.50;;
5491;SDS011;2768;53.540;10.224;2023-12-22T09:34:07;6.17;;;1.90;;
5491;SDS011;2768;53.540;10.224;2023-12-22T09:40:01;7.77;;;1.67;;
5491;SDS011;2768;53.540;10.224;2023-12-22T09:45:55;7.70;;;1.90;;
5491;SDS011;2768;53.540;10.224;2023-12-22T09:51:50;6.77;;;1.70;;
5491;SDS011;2768;53.540;10.224;2023-12-22T09:57:45;4.90;;;1.47;;
5491;SDS011;2768;53.540;10.224;2023-12-22T10:03:41;8.63;;;1.63;;
5491;SDS011;2768;53.540;10.224;2023-12-22T10:09:38;6.13;;;1.83;;
5491;SDS011;2768;53.540;10.224;2023-12-22T10:15:33;6.50;;;1.33;;
5491;SDS011;2768;53.540;10.224;2023-12-22T10:21:28;8.93;;;2.00;;
5491;SDS011;2768;53.540;10.224;2023-12-22T10:27:25;11.80;;;2.77;;
5491;SDS011;2768;53.540;10.224;2023-12-22T10:33:18;8.17;;;2.70;;
5491;SDS011;2768;53.540;10.224;2023-12-22T10:39:13;7.23;;;2.10;;
5491;SDS011;2768;53.540;10.224;2023-12-22T10:45:07;10.83;;;2.53;;
5491;SDS011;2768;53.540;10.224;2023-12-22T10:51:01;10.93;;;2.10;;
5491;SDS011;2768;53.540;10.224;2023-12-22T10:56:57;5.40;;;2.10;;
5491;SDS011;2768;53.540;10.224;2023-12-22T11:02:53;7.80;;;1.90;;
5491;SDS011;2768;53.540;10.224;2023-12-22T11:08:51;6.50;;;2.20;;
5491;SDS011;2768;53.540;10.224;2023-12-22T11:14:47;9.20;;;2.43;;
5491;SDS011;2768;53.540;10.224;2023-12-22T11:20:42;6.80;;;2.07;;
5491;SDS011;2768;53.540;10.224;2023-12-22T11:26:37;8.47;;;2.23;;
5491;SDS011;2768;53.540;10.224;2023-12-22T11:32:34;8.13;;;2.20;;
5491;SDS011;2768;53.540;10.224;2023-12-22T11:38:28;7.93;;;2.03;;
5491;SDS011;2768;53.540;10.224;2023-12-22T11:44:22;9.80;;;2.43;;
5491;SDS011;2768;53.540;10.224;2023-12-22T11:50:28;14.63;;;2.67;;
5491;SDS011;2768;53.540;10.224;2023-12-22T11:56:23;10.20;;;2.10;;
5491;SDS011;2768;53.540;10.224;2023-12-22T12:02:17;9.47;;;2.70;;
5491;SDS011;2768;53.540;10.224;2023-12-22T12:08:12;7.10;;;2.03;;
5491;SDS011;2768;53.540;10.224;2023-12-22T12:14:07;7.50;;;2.30;;
5491;SDS011;2768;53.540;10.224;2023-12-22T12:20:04;8.73;;;2.10;;
5491;SDS011;2768;53.540;10.224;2023-12-22T12:26:00;8.70;;;2.80;;
5491;SDS011;2768;53.540;10.224;2023-12-22T12:31:54;14.43;;;2.23;;
5491;SDS011;2768;53.540;10.224;2023-12-22T12:37:55;5.00;;;1.97;;
5491;SDS011;2768;53.540;10.224;2023-12-22T12:43:52;8.00;;;2.33;;
5491;SDS011;2768;53.540;10.224;2023-12-22T12:49:47;9.57;;;2.50;;
5491;SDS011;2768;53.540;10.224;2023-12-22T12:55:49;8.23;;;2.90;;
5491;SDS011;2768;53.540;10.224;2023-12-22T13:01:49;8.87;;;2.20;;
5491;SDS011;2768;53.540;10.224;2023-12-22T13:07:43;9.57;;;2.07;;
5491;SDS011;2768;53.540;10.224;2023-12-22T13:13:40;6.83;;;1.80;;
5491;SDS011;2768;53.540;10.224;2023-12-22T13:19:35;8.77;;;1.60;;
5491;SDS011;2768;53.540;10.224;2023-12-22T13:25:37;8.00;;;2.00;;
5491;SDS011;2768;53.540;10.224;2023-12-22T13:31:31;8.97;;;2.27;;
5491;SDS011;2768;53.540;10.224;2023-12-22T13:37:26;11.90;;;2.30;;
5491;SDS011;2768;53.540;10.224;2023-12-22T13:43:22;10.67;;;2.77;;
5491;SDS011;2768;53.540;10.224;2023-12-22T13:49:20;9.17;;;2.10;;
5491;SDS011;2768;53.540;10.224;2023-12-22T13:55:15;14.13;;;2.33;;
5491;SDS011;2768;53.540;10.224;2023-12-22T14:01:12;8.23;;;1.87;;
5491;SDS011;2768;53.540;10.224;2023-12-22T14:07:07;4.63;;;2.10;;
5491;SDS011;2768;53.540;10.224;2023-12-22T14:13:01;6.03;;;2.20;;
5491;SDS011;2768;53.540;10.224;2023-12-22T14:18:55;11.57;;;1.80;;
5491;SDS011;2768;53.540;10.224;2023-12-22T14:24:48;11.90;;;2.17;;
5491;SDS011;2768;53.540;10.224;2023-12-22T14:30:43;13.80;;;2.27;;
5491;SDS011;2768;53.540;10.224;2023-12-22T14:36:36;9.17;;;2.53;;
5491;SDS011;2768;53.540;10.224;2023-12-22T14:42:29;9.57;;;1.83;;
5491;SDS011;2768;53.540;10.224;2023-12-22T14:48:26;9.47;;;2.20;;
5491;SDS011;2768;53.540;10.224;2023-12-22T14:54:19;11.70;;;2.30;;
5491;SDS011;2768;53.540;10.224;2023-12-22T15:00:14;7.77;;;1.87;;
5491;SDS011;2768;53.540;10.224;2023-12-22T15:06:09;7.10;;;2.20;;
5491;SDS011;2768;53.540;10.224;2023-12-22T15:12:05;7.53;;;1.63;;
5491;SDS011;2768;53.540;10.224;2023-12-22T15:17:58;3.40;;;1.47;;
5491;SDS011;2768;53.540;10.224;2023-12-22T15:23:53;5.10;;;2.10;;
5491;SDS011;2768;53.540;10.224;2023-12-22T15:29:46;12.63;;;2.70;;
5491;SDS011;2768;53.540;10.224;2023-12-22T15:35:40;5.90;;;2.03;;
5491;SDS011;2768;53.540;10.224;2023-12-22T15:41:34;9.77;;;2.13;;
5491;SDS011;2768;53.540;10.224;2023-12-22T15:47:27;7.13;;;1.47;;
5491;SDS011;2768;53.540;10.224;2023-12-22T15:53:21;10.27;;;1.67;;
5491;SDS011;2768;53.540;10.224;2023-12-22T15:59:15;7.20;;;2.07;;
5491;SDS011;2768;53.540;10.224;2023-12-22T16:05:09;7.87;;;1.70;;
5491;SDS011;2768;53.540;10.224;2023-12-22T16:11:03;7.43;;;2.03;;
5491;SDS011;2768;53.540;10.224;2023-12-22T16:16:58;9.97;;;2.50;;
5491;SDS011;2768;53.540;10.224;2023-12-22T16:22:52;5.60;;;1.43;;
5491;SDS011;2768;53.540;10.224;2023-12-22T16:28:45;7.27;;;1.90;;
5491;SDS011;2768;53.540;10.224;2023-12-22T16:34:42;8.43;;;2.73;;
5491;SDS011;2768;53.540;10.224;2023-12-22T16:40:36;9.37;;;2.00;;
5491;SDS011;2768;53.540;10.224;2023-12-22T16:46:29;9.63;;;2.30;;
5491;SDS011;2768;53.540;10.224;2023-12-22T16:52:24;11.20;;;2.37;;
5491;SDS011;2768;53.540;10.224;2023-12-22T16:58:18;7.27;;;1.93;;
5491;SDS011;2768;53.540;10.224;2023-12-22T17:04:11;4.70;;;1.53;;
5491;SDS011;2768;53.540;10.224;2023-12-22T17:10:07;3.43;;;1.50;;
5491;SDS011;2768;53.540;10.224;2023-12-22T17:16:00;4.20;;;1.40;;
5491;SDS011;2768;53.540;10.224;2023-12-22T17:21:53;4.33;;;1.90;;
5491;SDS011;2768;53.540;10.224;2023-12-22T17:27:48;6.93;;;1.67;;
5491;SDS011;2768;53.540;10.224;2023-12-22T17:33:41;6.73;;;1.90;;
5491;SDS011;2768;53.540;10.224;2023-12-22T17:39:35;5.43;;;1.43;;
5491;SDS011;2768;53.540;10.224;2023-12-22T17:45:30;3.30;;;1.20;;
5491;SDS011;2768;53.540;10.224;2023-12-22T17:51:23;3.83;;;1.47;;
5491;SDS011;2768;53.540;10.224;2023-12-22T17:57:16;4.50;;;2.00;;
5491;SDS011;2768;53.540;10.224;2023-12-22T18:03:11;6.93;;;1.97;;
5491;SDS011;2768;53.540;10.224;2023-12-22T18:09:04;6.50;;;1.60;;
5491;SDS011;2768;53.540;10.224;2023-12-22T18:14:58;2.80;;;1.37;;
5491;SDS011;2768;53.540;10.224;2023-12-22T18:20:52;6.97;;;1.70;;
5491;SDS011;2768;53.540;10.224;2023-12-22T18:26:45;4.80;;;2.33;;
5491;SDS011;2768;53.540;10.224;2023-12-22T18:32:39;4.17;;;2.10;;
5491;SDS011;2768;53.540;10.224;2023-12-22T18:38:34;11.27;;;4.00;;
5491;SDS011;2768;53.540;10.224;2023-12-22T18:44:48;5.20;;;2.63;;
5491;SDS011;2768;53.540;10.224;2023-12-22T18:50:44;3.93;;;1.53;;
5491;SDS011;2768;53.540;10.224;2023-12-22T18:56:42;6.73;;;1.63;;
5491;SDS011;2768;53.540;10.224;2023-12-22T19:02:37;5.43;;;1.97;;
5491;SDS011;2768;53.540;10.224;2023-12-22T19:08:49;1.53;;;0.97;;
5491;SDS011;2768;53.540;10.224;2023-12-22T19:14:44;2.43;;;1.00;;
5491;SDS011;2768;53.540;10.224;2023-12-22T19:20:37;3.67;;;0.87;;
5491;SDS011;2768;53.540;10.224;2023-12-22T19:26:31;1.67;;;0.93;;
5491;SDS011;2768;53.540;10.224;2023-12-22T19:32:26;0.80;;;0.80;;
5491;SDS011;2768;53.540;10.224;2023-12-22T19:38:19;2.87;;;1.40;;
5491;SDS011;2768;53.540;10.224;2023-12-22T19:44:13;4.30;;;1.20;;
5491;SDS011;2768;53.540;10.224;2023-12-22T19:50:08;3.73;;;1.43;;
5491;SDS011;2768;53.540;10.224;2023-12-22T19:56:03;5.37;;;1.50;;
5491;SDS011;2768;53.540;10.224;2023-12-22T20:01:56;7.67;;;1.60;;
5491;SDS011;2768;53.540;10.224;2023-12-22T20:07:51;4.43;;;1.37;;
5491;SDS011;2768;53.540;10.224;2023-12-22T20:13:45;8.80;;;1.70;;
5491;SDS011;2768;53.540;10.224;2023-12-22T20:19:38;8.53;;;1.60;;
5491;SDS011;2768;53.540;10.224;2023-12-22T20:25:33;9.20;;;2.10;;
5491;SDS011;2768;53.540;10.224;2023-12-22T20:31:27;6.13;;;2.30;;
5491;SDS011;2768;53.540;10.224;2023-12-22T20:37:20;10.60;;;2.40;;
5491;SDS011;2768;53.540;10.224;2023-12-22T20:43:15;9.97;;;2.20;;
5491;SDS011;2768;53.540;10.224;2023-12-22T20:49:08;11.83;;;2.40;;
5491;SDS011;2768;53.540;10.224;2023-12-22T20:55:02;10.30;;;1.63;;
5491;SDS011;2768;53.540;10.224;2023-12-22T21:00:58;10.30;;;3.70;;
5491;SDS011;2768;53.540;10.224;2023-12-22T21:06:51;9.30;;;2.17;;
5491;SDS011;2768;53.540;10.224;2023-12-22T21:12:44;7.90;;;1.50;;
5491;SDS011;2768;53.540;10.224;2023-12-22T21:18:39;5.37;;;1.50;;
5491;SDS011;2768;53.540;10.224;2023-12-22T21:24:32;3.63;;;1.03;;
5491;SDS011;2768;53.540;10.224;2023-12-22T21:30:28;6.00;;;1.50;;
5491;SDS011;2768;53.540;10.224;2023-12-22T21:36:23;5.80;;;1.43;;
5491;SDS011;2768;53.540;10.224;2023-12-22T21:42:22;3.77;;;1.23;;
5491;SDS011;2768;53.540;10.224;2023-12-22T21:48:19;1.77;;;1.10;;
5491;SDS011;2768;53.540;10.224;2023-12-22T21:54:14;3.37;;;0.90;;
5491;SDS011;2768;53.540;10.224;2023-12-22T22:00:09;3.13;;;2.10;;
5491;SDS011;2768;53.540;10.224;2023-12-22T22:06:04;2.10;;;1.10;;
5491;SDS011;2768;53.540;10.224;2023-12-22T22:11:58;4.00;;;1.23;;
5491;SDS011;2768;53.540;10.224;2023-12-22T22:17:52;4.60;;;0.90;;
5491;SDS011;2768;53.540;10.224;2023-12-22T22:23:47;2.10;;;1.10;;
5491;SDS011;2768;53.540;10.224;2023-12-22T22:29:42;4.47;;;0.90;;
5491;SDS011;2768;53.540;10.224;2023-12-22T22:35:35;4.10;;;1.10;;
5491;SDS011;2768;53.540;10.224;2023-12-22T22:41:29;1.87;;;0.80;;
5491;SDS011;2768;53.540;10.224;2023-12-22T22:47:24;2.60;;;1.13;;
5491;SDS011;2768;53.540;10.224;2023-12-22T22:53:17;3.33;;;1.30;;
5491;SDS011;2768;53.540;10.224;2023-12-22T22:59:10;4.80;;;1.70;;
5491;SDS011;2768;53.540;10.224;2023-12-22T23:05:05;4.37;;;1.23;;
5491;SDS011;2768;53.540;10.224;2023-12-22T23:11:00;7.73;;;1.43;;
5491;SDS011;2768;53.540;10.224;2023-12-22T23:16:53;5.47;;;1.30;;
5491;SDS011;2768;53.540;10.224;2023-12-22T23:22:48;2.97;;;1.40;;
5491;SDS011;2768;53.540;10.224;2023-12-22T23:28:42;5.53;;;1.20;;
5491;SDS011;2768;53.540;10.224;2023-12-22T23:34:37;4.07;;;1.10;;
5491;SDS011;2768;53.540;10.224;2023-12-22T23:40:32;4.93;;;1.30;;
5491;SDS011;2768;53.540;10.224;2023-12-22T23:46:25;5.83;;;1.03;;
5491;SDS011;2768;53.540;10.224;2023-12-22T23:52:19;2.93;;;1.50;;
5491;SDS011;2768;53.540;10.224;2023-12-22T23:58:14;2.60;;;1.53;;
